Flight Track Log - Related Links

Times and Time Zones

All times are in EDT time to prevent confusion due to time zone crossing. See the N825AK flight status page for this flight to view local times or setup timezone preferences in your user account.

Time Position Orientation Groundspeed Altitude Reporting Facility
EDT Latitude Longitude Course Direction KTS MPH feet Rate Location/Type
Fri 11:06:04 AM 43.1414 -88.7808 329° Northwest 146 168 4,500  Level Chicago Center
Fri 11:07:06 AM 43.1781 -88.8083 331° Northwest 148 170 4,500 -31 Level Chicago Center
Fri 11:09:17 AM 43.2556 -88.8706 330° Northwest 148 170 4,400 33 Descending Minneapolis Center
Fri 11:10:00 AM 43.1717 -88.9865 329° Northwest  Level Estimated
Fri 11:10:10 AM 43.2794 -88.9019 316° Northwest 145 167 4,600  Level Chicago Center
Fri 11:11:00 AM 43.2065 -89.0147 329° Northwest  Level Estimated
Fri 11:11:12 AM 43.3125 -88.9333 325° Northwest 144 166 4,500  Level Chicago Center
Fri 11:12:14 AM 43.3475 -88.9625 329° Northwest 145 167 4,500 49 Level Chicago Center
Fri 11:13:15 AM 43.3875 -88.9978 327° Northwest 146 168 4,600  Climbing Chicago Center
Fri 11:14:17 AM 43.4214 -89.0283 327° Northwest 145 167 4,500 -49 Descending Chicago Center
Fri 11:15:18 AM 43.4558 -89.0581 328° Northwest 145 167 4,500 -49 Level Chicago Center
Fri 11:16:20 AM 43.4903 -89.0900 326° Northwest 147 169 4,400  Descending Chicago Center
Fri 11:17:22 AM 43.5242 -89.1192 328° Northwest 146 168 4,500 49 Climbing Chicago Center
Fri 11:18:23 AM 43.5578 -89.1489 327° Northwest 144 166 4,500 -49 Level Chicago Center
Fri 11:19:25 AM 43.5917 -89.1786 328° Northwest 143 165 4,400 -49 Descending Chicago Center
Fri 11:20:26 AM 43.6303 -89.2131 327° Northwest 142 163 4,400 49 Level Chicago Center
Fri 11:21:28 AM 43.6636 -89.2433 327° Northwest 143 165 4,500 49 Climbing Chicago Center
Fri 11:22:29 AM 43.6975 -89.2728 328° Northwest 143 165 4,500  Level Chicago Center
Fri 11:23:31 AM 43.7311 -89.3033 327° Northwest 144 166 4,500  Level Chicago Center
Fri 11:24:33 AM 43.7644 -89.3336 327° Northwest 144 166 4,500  Level Chicago Center
Fri 11:25:34 AM 43.7981 -89.3625 328° Northwest 143 165 4,500  Level Chicago Center
Fri 11:26:45 AM 43.8422 -89.3992 329° Northwest 141 162 4,500  Level Minneapolis Center
Fri 11:27:37 AM 43.8700 -89.4275 324° Northwest 142 163 4,500  Level Chicago Center
Fri 11:28:39 AM 43.9031 -89.4575 327° Northwest 142 163 4,500  Level Chicago Center
Fri 11:29:41 AM 43.9358 -89.4875 327° Northwest 141 162 4,500  Level Chicago Center
Fri 11:30:42 AM 43.9683 -89.5167 327° Northwest 140 161 4,500  Level Chicago Center
Fri 11:31:44 AM 44.0011 -89.5478 326° Northwest 141 162 4,500  Level Chicago Center
Fri 11:32:46 AM 44.0339 -89.5756 329° Northwest 139 160 4,500  Level Chicago Center
Fri 11:33:47 AM 44.0675 -89.6058 327° Northwest 141 162 4,500  Level Chicago Center
Fri 11:34:59 AM 44.1139 -89.6467 328° Northwest 142 163 4,500  Level Minneapolis Center
Fri 11:36:01 AM 44.1458 -89.6742 328° Northwest 140 161 4,500  Level Minneapolis Center
Fri 11:37:03 AM 44.1800 -89.7044 328° Northwest 139 160 4,500  Level Minneapolis Center
Fri 11:38:05 AM 44.2142 -89.7369 326° Northwest 142 163 4,500  Level Minneapolis Center
Fri 11:39:07 AM 44.2492 -89.7683 327° Northwest 143 165 4,500  Level Minneapolis Center
Fri 11:40:09 AM 44.2831 -89.8008 326° Northwest 143 165 4,500 -49 Level Minneapolis Center
Fri 11:41:10 AM 44.3156 -89.8289 328° Northwest 142 163 4,400 -49 Descending Minneapolis Center
Fri 11:42:12 AM 44.3503 -89.8608 327° Northwest 144 166 4,400 48 Level Minneapolis Center
Fri 11:43:14 AM 44.3794 -89.8869 327° Northwest 142 163 4,500  Climbing Minneapolis Center
Fri 11:44:16 AM 44.4178 -89.9231 326° Northwest 139 160 4,400  Descending Minneapolis Center
Fri 11:45:18 AM 44.4522 -89.9539 327° Northwest 140 161 4,500  Climbing Minneapolis Center
Fri 11:46:20 AM 44.4869 -89.9847 328° Northwest 142 163 4,400 -48 Descending Minneapolis Center
Fri 11:47:22 AM 44.5206 -90.0164 326° Northwest 140 161 4,400 48 Level Minneapolis Center
Fri 11:48:24 AM 44.5519 -90.0450 327° Northwest 140 161 4,500  Climbing Minneapolis Center
Fri 11:49:26 AM 44.5869 -90.0775 327° Northwest 144 166 4,400  Descending Minneapolis Center
Fri 11:50:28 AM 44.6214 -90.1103 326° Northwest 143 165 4,500 49 Climbing Minneapolis Center
Fri 11:51:29 AM 44.6569 -90.1414 328° Northwest 144 166 4,500  Level Minneapolis Center
Fri 11:52:31 AM 44.6919 -90.1756 325° Northwest 145 167 4,500 -48 Level Minneapolis Center
Fri 11:53:33 AM 44.7189 -90.2000 327° Northwest 145 167 4,400  Descending Minneapolis Center
Fri 11:54:35 AM 44.7589 -90.2369 327° Northwest 144 166 4,500 48 Climbing Minneapolis Center
Fri 11:55:37 AM 44.7928 -90.2689 326° Northwest 141 162 4,500  Level Minneapolis Center
Fri 11:56:39 AM 44.8289 -90.3025 327° Northwest 147 169 4,500 -48 Level Minneapolis Center
Fri 11:57:41 AM 44.8647 -90.3361 326° Northwest 149 171 4,400 -48 Descending Minneapolis Center
Fri 11:58:43 AM 44.9006 -90.3700 326° Northwest 149 171 4,400 48 Level Minneapolis Center
Fri 11:59:45 AM 44.9361 -90.4025 327° Northwest 146 168 4,500  Climbing Minneapolis Center
Fri 12:00:47 PM 44.9697 -90.4342 326° Northwest 149 171 4,400  Descending Minneapolis Center
Fri 12:01:49 PM 45.0058 -90.4672 327° Northwest 149 171 4,500  Climbing Minneapolis Center
Fri 12:02:51 PM 45.0419 -90.5014 326° Northwest 149 171 4,400 -48 Descending Minneapolis Center
Fri 12:03:53 PM 45.0781 -90.5358 326° Northwest 151 174 4,400  Level Minneapolis Center
Fri 12:04:55 PM 45.1136 -90.5669 328° Northwest 150 173 4,400 -48 Level Minneapolis Center
Fri 12:05:57 PM 45.1472 -90.5997 325° Northwest 149 171 4,300 -48 Descending Minneapolis Center
Fri 12:06:59 PM 45.1817 -90.6322 326° Northwest 148 170 4,300 48 Level Minneapolis Center
Fri 12:08:01 PM 45.2156 -90.6653 326° Northwest 148 170 4,400 48 Climbing Minneapolis Center
Fri 12:09:03 PM 45.2506 -90.6981 327° Northwest 149 171 4,400 -48 Level Minneapolis Center
Fri 12:10:05 PM 45.2936 -90.7375 327° Northwest 151 174 4,300 -48 Descending Minneapolis Center
Fri 12:11:07 PM 45.3283 -90.7708 326° Northwest 151 174 4,300  Level Minneapolis Center
Fri 12:12:08 PM 45.3639 -90.8036 327° Northwest 151 174 4,300 49 Level Minneapolis Center
Fri 12:13:10 PM 45.3992 -90.8375 326° Northwest 152 175 4,400  Climbing Minneapolis Center
Fri 12:14:12 PM 45.4336 -90.8719 325° Northwest 152 175 4,300  Descending Minneapolis Center
Fri 12:15:14 PM 45.4686 -90.9053 326° Northwest 152 175 4,400  Climbing Minneapolis Center
Fri 12:16:16 PM 45.5067 -90.9403 327° Northwest 152 175 4,300 -97 Descending Minneapolis Center
Fri 12:18:00 PM 45.5658 -90.9990 325° Northwest  Level FlightAware Approximate
Fri 12:25:00 PM 45.8045 -91.2375 325° Northwest  Level FlightAware Approximate
Fri 12:26:00 PM 45.8385 -91.2718 325° Northwest  Level FlightAware Approximate
Fri 12:27:00 PM 45.8728 -91.3061 325° Northwest  Level FlightAware Approximate
Fri 12:28:00 PM 45.9069 -91.3401 325° Northwest  Level FlightAware Approximate
Fri 12:29:00 PM 45.9411 -91.3743 325° Northwest  Level FlightAware Approximate
Fri 12:30:00 PM 45.9752 -91.4084 325° Northwest  Level FlightAware Approximate
Fri 12:31:00 PM 46.0113 -91.4333 North  Level FlightAware Approximate
Fri 12:32:00 PM 46.0167 -91.4333 North  Level FlightAware Approximate
Fri 12:33:00 PM 46.0253 -91.4443 North  Level Estimated
Fri 12:34:00 PM 46.0253 -91.4443 North  Level Estimated
Fri 12:35:00 PM 46.0253 -91.4443 North  Level Estimated
Fri 12:36:00 PM 46.0253 -91.4443 North  Level Estimated
Fri 12:37:00 PM 46.0253 -91.4443 North  Level Estimated

Login

Don't have an account? Register now (free) for customized features, flight alerts, and more!